Time;durP1;ratioP1;P1;durP2;ratioP2;P2;SDS_P1;SDS_P2;PMS_P1;PMS_P2;Temp;Humidity;BMP_temperature;BMP_pressure;BME280_temperature;BME280_humidity;BME280_pressure;Samples;Min_cycle;Max_cycle;Signal;HPM_P1;HPM_P2
2023/11/22 00:02:05;;;;;;;13.8;7.5;;;;;;;1.16;89.17;;;;;
2023/11/22 00:13:05;;;;;;;13.8;7.5;;;;;;;0.97;89.46;;;;;
2023/11/22 00:24:05;;;;;;;10.5;5.7;;;;;;;1.08;89.31;;;;;
2023/11/22 00:35:05;;;;;;;10.5;5.7;;;;;;;1.07;89.08;;;;;
2023/11/22 00:46:05;;;;;;;10.5;5.7;;;;;;;1.01;89.56;;;;;
2023/11/22 00:56:06;;;;;;;15.4;9.8;;;;;;;1;89.44;;;;;
2023/11/22 01:06:06;;;;;;;15.4;9.8;;;;;;;0.96;88.6;;;;;
2023/11/22 01:16:06;;;;;;;15.4;9.8;;;;;;;0.8;88.63;;;;;
2023/11/22 01:27:05;;;;;;;12.6;7.5;;;;;;;0.57;89.14;;;;;
2023/11/22 01:37:05;;;;;;;12.6;7.5;;;;;;;0.55;89.87;;;;;
2023/11/22 01:47:05;;;;;;;12.6;7.5;;;;;;;0.76;89.54;;;;;
2023/11/22 01:58:05;;;;;;;10.5;7.2;;;;;;;0.67;88.8;;;;;
2023/11/22 02:08:05;;;;;;;10.5;7.2;;;;;;;0.72;88.71;;;;;
2023/11/22 02:18:06;;;;;;;10.5;7.2;;;;;;;0.5;88.91;;;;;
2023/11/22 02:29:05;;;;;;;10.6;6.9;;;;;;;0.37;88.11;;;;;
2023/11/22 02:39:06;;;;;;;10.6;6.9;;;;;;;0.13;88.37;;;;;
2023/11/22 02:50:05;;;;;;;15.6;6.9;;;;;;;0.04;87.84;;;;;
2023/11/22 03:01:05;;;;;;;15.6;6.9;;;;;;;-0.03;88.41;;;;;
2023/11/22 03:11:05;;;;;;;15.6;6.9;;;;;;;0.06;88.96;;;;;
2023/11/22 03:21:05;;;;;;;11.1;6.3;;;;;;;0.22;88.65;;;;;
2023/11/22 03:31:07;;;;;;;11.1;6.3;;;;;;;0.23;88.7;;;;;
2023/11/22 03:42:05;;;;;;;11.1;6.3;;;;;;;0.41;88.58;;;;;
2023/11/22 03:52:05;;;;;;;12.7;8.4;;;;;;;0.58;88.74;;;;;
2023/11/22 04:03:05;;;;;;;12.7;8.4;;;;;;;0.48;88.29;;;;;
2023/11/22 04:14:05;;;;;;;12.7;8.4;;;;;;;0.48;88.13;;;;;
2023/11/22 04:24:06;;;;;;;16.4;7.9;;;;;;;0.4;87.69;;;;;
2023/11/22 04:34:05;;;;;;;16.4;7.9;;;;;;;0.42;87.79;;;;;
2023/11/22 04:45:06;;;;;;;16.4;7.9;;;;;;;0.27;87.73;;;;;
2023/11/22 04:55:05;;;;;;;17.2;9.2;;;;;;;0.23;87.82;;;;;
2023/11/22 05:06:05;;;;;;;17.2;9.2;;;;;;;0.32;86.83;;;;;
2023/11/22 05:17:05;;;;;;;17.2;9.2;;;;;;;0.17;86.14;;;;;
2023/11/22 05:28:05;;;;;;;15.2;9.1;;;;;;;0.02;86.11;;;;;
2023/11/22 05:39:06;;;;;;;15.2;9.1;;;;;;;0.28;86.06;;;;;
2023/11/22 05:50:05;;;;;;;17.7;10.1;;;;;;;0.23;85.96;;;;;
2023/11/22 06:00:05;;;;;;;17.7;10.1;;;;;;;0.2;86.92;;;;;
2023/11/22 06:11:05;;;;;;;17.7;10.1;;;;;;;0.09;87.62;;;;;
2023/11/22 06:21:05;;;;;;;20;10;;;;;;;0.21;87.11;;;;;
2023/11/22 06:31:05;;;;;;;20;10;;;;;;;0.14;86.88;;;;;
2023/11/22 06:42:06;;;;;;;20;10;;;;;;;0.2;86.75;;;;;
2023/11/22 06:53:06;;;;;;;16.7;8.4;;;;;;;-0.06;88.01;;;;;
2023/11/22 07:03:05;;;;;;;16.7;8.4;;;;;;;0.1;87.28;;;;;
2023/11/22 07:14:05;;;;;;;16.7;8.4;;;;;;;0.02;87.64;;;;;
2023/11/22 07:25:06;;;;;;;13.3;8.2;;;;;;;-0.18;88.13;;;;;
2023/11/22 07:36:05;;;;;;;13.3;8.2;;;;;;;-0.1;87.14;;;;;
2023/11/22 07:46:08;;;;;;;13.3;8.2;;;;;;;0.05;86.69;;;;;
2023/11/22 07:57:05;;;;;;;17.8;9.6;;;;;;;-0.12;86.69;;;;;
2023/11/22 08:08:07;;;;;;;17.8;9.6;;;;;;;-0.05;86.62;;;;;
2023/11/22 08:19:05;;;;;;;14.9;8.5;;;;;;;-0.13;86.33;;;;;
2023/11/22 08:30:05;;;;;;;14.9;8.5;;;;;;;0;85.82;;;;;
2023/11/22 08:41:05;;;;;;;14.9;8.5;;;;;;;-0.15;86.03;;;;;
2023/11/22 08:51:07;;;;;;;13.3;7.9;;;;;;;-0.16;85.7;;;;;
2023/11/22 09:02:07;;;;;;;13.3;7.9;;;;;;;-0.1;85.41;;;;;
2023/11/22 09:12:12;;;;;;;13.3;7.9;;;;;;;-0.13;84.73;;;;;
2023/11/22 09:22:06;;;;;;;15.5;8.6;;;;;;;-0.03;85.17;;;;;
2023/11/22 09:33:05;;;;;;;15.5;8.6;;;;;;;0.13;84.26;;;;;
2023/11/22 09:44:06;;;;;;;15.5;8.6;;;;;;;-0.05;84.13;;;;;
2023/11/22 09:54:07;;;;;;;14.7;9.3;;;;;;;-0.09;84.45;;;;;
2023/11/22 10:05:05;;;;;;;14.7;9.3;;;;;;;-0.03;84.85;;;;;
2023/11/22 10:15:05;;;;;;;14.7;9.3;;;;;;;0.13;83.85;;;;;
2023/11/22 10:26:07;;;;;;;15.4;8.5;;;;;;;0.08;83.46;;;;;
2023/11/22 10:37:05;;;;;;;15.4;8.5;;;;;;;0.13;83.07;;;;;
2023/11/22 10:47:06;;;;;;;15.4;8.5;;;;;;;0.25;82.38;;;;;
2023/11/22 10:58:06;;;;;;;12.3;8;;;;;;;0.36;82.69;;;;;
2023/11/22 11:08:10;;;;;;;12.3;8;;;;;;;0.18;82.56;;;;;
2023/11/22 11:19:07;;;;;;;17.6;9.3;;;;;;;0.3;83.49;;;;;
2023/11/22 11:29:07;;;;;;;17.6;9.3;;;;;;;0.41;83.14;;;;;
2023/11/22 11:40:06;;;;;;;17.6;9.3;;;;;;;0.41;82.01;;;;;
2023/11/22 11:50:06;;;;;;;17.6;8.6;;;;;;;0.37;82.61;;;;;
2023/11/22 12:01:05;;;;;;;17.6;8.6;;;;;;;0.35;82.36;;;;;
2023/11/22 12:12:06;;;;;;;17.6;8.6;;;;;;;0.28;82.67;;;;;
2023/11/22 12:23:06;;;;;;;19.9;10.9;;;;;;;0.19;82.67;;;;;
2023/11/22 12:34:05;;;;;;;19.9;10.9;;;;;;;0.3;83.42;;;;;
2023/11/22 12:44:05;;;;;;;19.9;10.9;;;;;;;0.23;83.36;;;;;
2023/11/22 12:55:07;;;;;;;17.6;9.5;;;;;;;0.39;83.33;;;;;
2023/11/22 13:05:10;;;;;;;17.6;9.5;;;;;;;0.56;82.95;;;;;
2023/11/22 13:16:05;;;;;;;17.6;9.5;;;;;;;0.49;82.51;;;;;
2023/11/22 13:26:05;;;;;;;14.4;8.6;;;;;;;0.56;81.91;;;;;
2023/11/22 13:37:05;;;;;;;14.4;8.6;;;;;;;0.18;83.3;;;;;
2023/11/22 13:47:07;;;;;;;18.9;10.7;;;;;;;0.45;83.15;;;;;
2023/11/22 13:58:05;;;;;;;18.9;10.7;;;;;;;0.37;83.16;;;;;
2023/11/22 14:08:06;;;;;;;18.9;10.7;;;;;;;0.47;82.89;;;;;
2023/11/22 14:18:06;;;;;;;16.3;9;;;;;;;0.52;82.29;;;;;
2023/11/22 14:29:05;;;;;;;16.3;9;;;;;;;0.34;84.08;;;;;
2023/11/22 14:40:13;;;;;;;16.3;9;;;;;;;0.4;83.4;;;;;
2023/11/22 14:50:05;;;;;;;16.9;8.8;;;;;;;0.16;84.74;;;;;
2023/11/22 15:01:08;;;;;;;16.9;8.8;;;;;;;0.28;83.89;;;;;
2023/11/22 15:11:08;;;;;;;16.9;8.8;;;;;;;0.53;83.55;;;;;
2023/11/22 15:22:06;;;;;;;21.4;12.1;;;;;;;0.41;83.26;;;;;
2023/11/22 15:33:05;;;;;;;21.4;12.1;;;;;;;0.28;80.69;;;;;
2023/11/22 15:43:05;;;;;;;21.4;12.1;;;;;;;0.28;81.78;;;;;
2023/11/22 15:54:05;;;;;;;17.7;11.5;;;;;;;-0.02;80.88;;;;;
2023/11/22 16:04:05;;;;;;;17.7;11.5;;;;;;;0.25;79.46;;;;;
2023/11/22 16:15:05;;;;;;;17.7;11.5;;;;;;;0.41;80.4;;;;;
2023/11/22 16:25:07;;;;;;;15.9;7.2;;;;;;;0.54;79.6;;;;;
2023/11/22 16:35:06;;;;;;;15.9;7.2;;;;;;;0.54;78.94;;;;;
2023/11/22 16:46:06;;;;;;;15.9;7.2;;;;;;;0.42;79.04;;;;;
2023/11/22 16:57:05;;;;;;;26;15.2;;;;;;;0.29;78.89;;;;;
2023/11/22 17:07:06;;;;;;;26;15.2;;;;;;;0.17;80.06;;;;;
2023/11/22 17:18:05;;;;;;;18.1;9.4;;;;;;;0.1;79.52;;;;;
2023/11/22 17:28:05;;;;;;;18.1;9.4;;;;;;;0.04;79.63;;;;;
2023/11/22 17:38:07;;;;;;;18.1;9.4;;;;;;;0.2;80.14;;;;;
2023/11/22 17:48:07;;;;;;;12.6;6.5;;;;;;;0.26;79.29;;;;;
2023/11/22 17:59:06;;;;;;;12.6;6.5;;;;;;;-0.03;80.3;;;;;
2023/11/22 18:10:06;;;;;;;12.6;6.5;;;;;;;0.04;78.82;;;;;
2023/11/22 18:20:09;;;;;;;21.3;10.4;;;;;;;-0.05;79.97;;;;;
2023/11/22 18:31:06;;;;;;;21.3;10.4;;;;;;;0.15;80.79;;;;;
2023/11/22 18:41:06;;;;;;;21.3;10.4;;;;;;;0.23;79.75;;;;;
2023/11/22 18:52:05;;;;;;;18.2;9.4;;;;;;;0.21;79.18;;;;;
2023/11/22 19:02:07;;;;;;;18.2;9.4;;;;;;;0.24;79.53;;;;;
2023/11/22 19:12:05;;;;;;;18.2;9.4;;;;;;;0.05;80.36;;;;;
2023/11/22 19:23:06;;;;;;;28.4;14.3;;;;;;;0.04;81.55;;;;;
2023/11/22 19:34:06;;;;;;;28.4;14.3;;;;;;;0.11;79.96;;;;;
2023/11/22 19:44:05;;;;;;;28.4;14.3;;;;;;;0.33;79.96;;;;;
2023/11/22 19:55:05;;;;;;;16.1;7.9;;;;;;;0.44;79.61;;;;;
2023/11/22 20:05:07;;;;;;;16.1;7.9;;;;;;;0.26;79.2;;;;;
2023/11/22 20:16:05;;;;;;;29.7;14;;;;;;;0.22;79.51;;;;;
2023/11/22 20:27:05;;;;;;;29.7;14;;;;;;;0.22;80.19;;;;;
2023/11/22 20:37:05;;;;;;;29.7;14;;;;;;;0.29;79.68;;;;;
2023/11/22 20:47:06;;;;;;;18.2;8.4;;;;;;;0.3;79.27;;;;;
2023/11/22 20:57:06;;;;;;;18.2;8.4;;;;;;;0.19;79.98;;;;;
2023/11/22 21:08:05;;;;;;;18.2;8.4;;;;;;;0.18;79.9;;;;;
2023/11/22 21:18:07;;;;;;;15.3;6.2;;;;;;;0.34;80.14;;;;;
2023/11/22 21:29:06;;;;;;;15.3;6.2;;;;;;;0.28;80.31;;;;;
2023/11/22 21:39:11;;;;;;;15.3;6.2;;;;;;;0.17;80.68;;;;;
2023/11/22 21:49:06;;;;;;;12.3;8;;;;;;;0.06;81.25;;;;;
2023/11/22 22:00:08;;;;;;;12.3;8;;;;;;;-0.07;81.26;;;;;
2023/11/22 22:11:05;;;;;;;12.3;8;;;;;;;-0.09;80.88;;;;;
2023/11/22 22:21:06;;;;;;;16.6;8.4;;;;;;;-0.03;80.74;;;;;
2023/11/22 22:31:06;;;;;;;16.6;8.4;;;;;;;-0.05;80.04;;;;;
2023/11/22 22:41:06;;;;;;;16.6;8.4;;;;;;;-0.07;80.43;;;;;
2023/11/22 22:52:06;;;;;;;15.1;7.6;;;;;;;-0.15;80.89;;;;;
2023/11/22 23:02:06;;;;;;;15.1;7.6;;;;;;;-0.1;81.73;;;;;
2023/11/22 23:12:06;;;;;;;15.1;7.6;;;;;;;0.04;81.14;;;;;
2023/11/22 23:23:06;;;;;;;12.6;8.2;;;;;;;-0.05;80.97;;;;;
2023/11/22 23:33:06;;;;;;;12.6;8.2;;;;;;;-0.06;81.91;;;;;
2023/11/22 23:44:06;;;;;;;12.6;8.2;;;;;;;-0.08;82.6;;;;;
2023/11/22 23:54:06;;;;;;;14.8;7.8;;;;;;;0.07;82.16;;;;;
